Time;durP1;ratioP1;P1;durP2;ratioP2;P2;SDS_P1;SDS_P2;PMS_P1;PMS_P2;Temp;Humidity;BMP_temperature;BMP_pressure;BME280_temperature;BME280_humidity;BME280_pressure;Samples;Min_cycle;Max_cycle;Signal;HPM_P1;HPM_P2
2022/12/09 00:01:32;;;;;;;19.80;11.45;;;;;;;4.59;47.27;100820.97;7395002;19;20007;-62
2022/12/09 00:03:57;;;;;;;19.20;10.50;;;;;;;4.61;47.24;100816.03;7394459;19;20344;-63
2022/12/09 00:06:26;;;;;;;18.30;11.63;;;;;;;4.56;46.92;100820.75;7394477;19;19998;-62
2022/12/09 00:08:52;;;;;;;19.92;10.85;;;;;;;4.46;47.31;100827.16;7394914;19;20042;-62
2022/12/09 00:11:19;;;;;;;20.80;10.77;;;;;;;4.41;47.10;100825.34;7394119;19;20010;-61
2022/12/09 00:13:54;;;;;;;20.38;11.40;;;;;;;4.47;47.15;100826.03;7394314;19;20003;-61
2022/12/09 00:16:21;;;;;;;20.17;11.75;;;;;;;4.51;47.08;100823.56;7392876;19;20011;-61
2022/12/09 00:18:47;;;;;;;21.45;12.27;;;;;;;4.48;46.97;100824.94;7395141;19;20013;-61
2022/12/09 00:21:28;;;;;;;22.02;12.18;;;;;;;4.49;46.94;100823.84;7392556;19;20010;-62
2022/12/09 00:23:55;;;;;;;19.65;11.85;;;;;;;4.65;46.68;100821.66;7393628;19;20007;-62
2022/12/09 00:26:22;;;;;;;19.75;11.70;;;;;;;4.69;46.46;100824.53;7393672;19;20007;-62
2022/12/09 00:28:49;;;;;;;22.08;11.75;;;;;;;4.65;46.30;100818.94;7393134;19;19998;-62
2022/12/09 00:31:27;;;;;;;19.35;11.52;;;;;;;4.67;46.21;100822.16;7393281;19;20033;-62
2022/12/09 00:33:59;;;;;;;21.67;10.75;;;;;;;4.66;46.13;100820.56;7392005;19;20069;-62
2022/12/09 00:36:25;;;;;;;20.88;10.98;;;;;;;4.66;46.43;100820.56;7389750;19;20066;-64
2022/12/09 00:38:53;;;;;;;19.88;11.10;;;;;;;4.59;46.24;100814.75;7393048;19;20066;-64
2022/12/09 00:41:19;;;;;;;20.33;10.60;;;;;;;4.60;46.37;100816.34;7392297;19;20002;-64
2022/12/09 00:43:45;;;;;;;19.30;10.52;;;;;;;4.65;45.95;100824.34;7392941;19;20001;-63
2022/12/09 00:46:12;;;;;;;16.80;9.98;;;;;;;4.51;46.30;100818.16;7392800;19;20475;-62
2022/12/09 00:48:38;;;;;;;17.63;9.70;;;;;;;4.49;46.13;100818.44;7391991;19;20006;-62
2022/12/09 00:51:05;;;;;;;16.83;9.90;;;;;;;4.55;45.90;100829.97;7390995;19;20093;-62
2022/12/09 00:53:31;;;;;;;18.45;10.02;;;;;;;4.66;45.76;100822.47;7392283;19;20340;-63
2022/12/09 00:55:57;;;;;;;15.02;8.52;;;;;;;4.68;45.54;100821.06;7391003;19;19998;-63
2022/12/09 00:58:23;;;;;;;18.42;9.93;;;;;;;4.66;45.63;100817.84;7392457;19;19999;-63
2022/12/09 01:00:50;;;;;;;19.63;9.23;;;;;;;4.59;45.65;100815.56;7391544;19;20006;-62
2022/12/09 01:03:16;;;;;;;17.83;9.88;;;;;;;4.58;45.68;100815.84;7390648;19;20421;-63
2022/12/09 01:05:43;;;;;;;17.10;9.70;;;;;;;4.68;45.39;100812.94;7391633;19;20466;-62
2022/12/09 01:08:10;;;;;;;17.48;8.95;;;;;;;4.64;45.36;100817.38;7391953;19;20006;-61
2022/12/09 01:10:37;;;;;;;16.48;8.90;;;;;;;4.62;45.51;100819.53;7391801;19;20003;-63
2022/12/09 01:13:03;;;;;;;17.65;9.73;;;;;;;4.63;45.53;100821.94;7388890;19;20081;-63
2022/12/09 01:15:29;;;;;;;16.98;9.35;;;;;;;4.64;45.43;100830.88;7389083;19;20018;-63
2022/12/09 01:17:55;;;;;;;18.92;9.48;;;;;;;4.69;45.54;100821.84;7388457;19;20007;-63
2022/12/09 01:20:22;;;;;;;17.20;10.00;;;;;;;4.85;45.10;100828.56;7392434;19;20011;-63
2022/12/09 01:22:48;;;;;;;17.70;10.02;;;;;;;4.79;45.14;100829.78;7388341;19;20017;-62
2022/12/09 01:25:14;;;;;;;21.73;9.88;;;;;;;4.69;45.38;100833.47;7391036;19;20065;-63
2022/12/09 01:27:39;;;;;;;17.42;9.43;;;;;;;4.71;45.27;100828.56;7389230;19;20058;-64
2022/12/09 01:30:07;;;;;;;19.92;9.57;;;;;;;4.56;45.73;100826.16;7391943;19;20455;-63
2022/12/09 01:32:33;;;;;;;20.08;10.13;;;;;;;4.47;45.76;100823.34;7390706;19;20006;-63
2022/12/09 01:34:59;;;;;;;18.45;9.48;;;;;;;4.25;46.14;100816.72;7391104;19;20309;-62
2022/12/09 01:37:25;;;;;;;18.65;10.23;;;;;;;4.25;46.21;100821.31;7390603;19;20280;-63
2022/12/09 01:39:50;;;;;;;17.70;9.85;;;;;;;4.20;46.31;100830.31;7391134;19;20361;-63
2022/12/09 01:42:23;;;;;;;18.95;10.68;;;;;;;4.05;46.62;100827.88;7387651;19;20006;-63
2022/12/09 01:45:29;;;;;;;18.08;10.40;;;;;;;4.01;46.37;100829.56;7390419;19;20008;-63
2022/12/09 01:48:14;;;;;;;18.10;10.00;;;;;;;3.77;46.96;100832.38;7390459;19;20030;-63
2022/12/09 01:50:44;;;;;;;18.90;10.07;;;;;;;3.61;47.25;100829.13;7391341;19;20002;-63
2022/12/09 01:53:11;;;;;;;17.60;10.40;;;;;;;3.41;47.80;100830.19;7388254;19;19998;-63
2022/12/09 01:55:38;;;;;;;17.23;9.77;;;;;;;3.33;47.95;100834.34;7390485;19;20002;-63
2022/12/09 01:58:04;;;;;;;17.80;9.68;;;;;;;3.24;48.29;100828.00;7390871;19;20408;-63
2022/12/09 02:00:30;;;;;;;17.27;10.15;;;;;;;3.12;48.42;100831.13;7388426;19;20008;-63
2022/12/09 02:02:56;;;;;;;19.30;10.45;;;;;;;3.01;48.66;100830.44;7389566;19;20014;-63
2022/12/09 02:05:25;;;;;;;17.35;9.20;;;;;;;2.91;48.96;100825.97;7389779;19;19991;-64
2022/12/09 02:07:51;;;;;;;19.33;10.70;;;;;;;2.78;49.15;100822.09;7390471;19;20002;-64
2022/12/09 02:10:18;;;;;;;18.02;10.48;;;;;;;2.81;49.17;100823.41;7390430;19;20058;-64
2022/12/09 02:13:08;;;;;;;19.73;10.55;;;;;;;2.89;48.81;100814.69;7388847;19;20486;-64
2022/12/09 02:15:41;;;;;;;16.52;9.48;;;;;;;2.78;49.25;100813.19;7397097;19;20018;-63
2022/12/09 02:18:37;;;;;;;17.58;10.07;;;;;;;2.77;48.78;100809.69;7397850;19;20017;-63
2022/12/09 02:21:14;;;;;;;18.80;10.25;;;;;;;2.66;49.00;100804.72;7397721;19;19991;-64
2022/12/09 02:24:15;;;;;;;18.85;10.25;;;;;;;2.66;49.06;100810.13;7396413;19;20006;-64
2022/12/09 02:26:58;;;;;;;16.90;9.82;;;;;;;2.66;49.17;100807.41;7396618;19;20046;-63
2022/12/09 02:29:58;;;;;;;18.40;9.63;;;;;;;2.79;48.56;100804.81;7397720;19;20003;-63
2022/12/09 02:32:46;;;;;;;21.70;11.38;;;;;;;3.03;48.59;100801.28;7395990;19;20323;-64
2022/12/09 02:35:23;;;;;;;22.05;12.15;;;;;;;3.31;47.82;100796.84;7397019;19;20086;-64
2022/12/09 02:37:53;;;;;;;22.58;12.20;;;;;;;3.31;47.94;100796.84;7392412;19;20010;-64
2022/12/09 02:40:27;;;;;;;21.88;12.25;;;;;;;3.33;47.98;100802.75;7397007;19;19999;-64
2022/12/09 02:42:55;;;;;;;23.85;12.18;;;;;;;3.34;48.06;100804.38;7393780;19;20051;-63
2022/12/09 02:45:25;;;;;;;24.83;12.70;;;;;;;3.34;48.18;100798.97;7396099;19;20010;-63
2022/12/09 02:47:52;;;;;;;24.80;13.05;;;;;;;3.49;47.68;100794.47;7395976;19;20073;-64
2022/12/09 02:50:22;;;;;;;22.05;12.55;;;;;;;3.66;47.58;100791.25;7395790;19;20006;-64
2022/12/09 02:52:51;;;;;;;24.42;13.20;;;;;;;3.80;47.19;100789.38;7394491;19;20494;-64
2022/12/09 02:55:19;;;;;;;24.52;12.80;;;;;;;3.76;47.61;100795.69;7396401;19;20011;-64
2022/12/09 02:57:50;;;;;;;26.83;13.52;;;;;;;3.78;47.13;100790.78;7393840;19;20024;-64
2022/12/09 03:00:17;;;;;;;26.45;14.00;;;;;;;3.66;47.30;100789.34;7396786;19;19999;-64
2022/12/09 03:02:46;;;;;;;29.10;14.43;;;;;;;3.57;47.77;100788.41;7392882;19;19994;-64
2022/12/09 03:05:24;;;;;;;27.63;15.25;;;;;;;3.43;48.10;100792.94;7395680;19;20017;-65
2022/12/09 03:07:53;;;;;;;28.38;14.45;;;;;;;3.51;48.04;100786.88;7396104;19;20007;-64
2022/12/09 03:10:24;;;;;;;27.88;14.43;;;;;;;3.73;47.56;100788.16;7394968;19;20066;-63
2022/12/09 03:12:58;;;;;;;27.33;14.75;;;;;;;3.84;47.19;100790.41;7394235;19;20062;-63
2022/12/09 03:15:29;;;;;;;29.15;14.52;;;;;;;3.82;47.49;100781.00;7394545;19;20058;-64
2022/12/09 03:17:57;;;;;;;26.98;14.05;;;;;;;3.89;47.24;100790.31;7393766;19;20477;-63
2022/12/09 03:20:27;;;;;;;25.77;13.90;;;;;;;3.94;47.06;100784.03;7394314;19;20112;-64
2022/12/09 03:22:59;;;;;;;27.20;14.77;;;;;;;3.98;47.08;100793.13;7394080;19;20062;-64
2022/12/09 03:25:38;;;;;;;25.65;14.70;;;;;;;4.04;46.89;100789.25;7393399;19;19998;-63
2022/12/09 03:28:08;;;;;;;31.40;15.57;;;;;;;3.98;47.21;100790.44;7395819;19;20019;-63
2022/12/09 03:30:38;;;;;;;25.27;13.45;;;;;;;4.02;47.18;100791.47;7394507;19;20477;-63
2022/12/09 03:33:04;;;;;;;28.35;14.98;;;;;;;4.01;47.15;100783.66;7392957;19;19999;-63
2022/12/09 03:35:35;;;;;;;28.00;14.38;;;;;;;4.05;47.06;100784.66;7394140;19;20323;-64
2022/12/09 03:38:05;;;;;;;28.17;14.80;;;;;;;4.11;46.94;100782.69;7391406;19;20422;-64
2022/12/09 03:40:32;;;;;;;29.58;14.68;;;;;;;4.08;46.88;100784.84;7395342;19;20109;-64
2022/12/09 03:43:02;;;;;;;29.95;15.35;;;;;;;4.07;47.13;100777.88;7392917;19;20010;-63
2022/12/09 03:45:29;;;;;;;27.90;14.52;;;;;;;4.00;47.30;100777.44;7394141;19;20013;-64
2022/12/09 03:47:54;;;;;;;28.83;14.60;;;;;;;3.99;47.28;100778.53;7395190;19;19991;-63
2022/12/09 03:50:24;;;;;;;31.77;13.45;;;;;;;3.97;47.28;100777.22;7395433;19;20091;-63
2022/12/09 03:53:01;;;;;;;27.42;14.10;;;;;;;3.94;47.14;100784.03;7392402;19;20359;-63
2022/12/09 03:55:42;;;;;;;29.75;14.23;;;;;;;3.94;47.36;100784.03;7394340;19;20375;-63
2022/12/09 03:58:12;;;;;;;24.50;12.95;;;;;;;4.01;47.10;100779.03;7394520;19;19998;-63
2022/12/09 04:00:38;;;;;;;24.65;13.85;;;;;;;4.17;47.03;100784.16;7394358;19;20025;-63
2022/12/09 04:03:05;;;;;;;26.38;13.45;;;;;;;4.13;46.52;100785.88;7391630;19;20009;-63
2022/12/09 04:05:31;;;;;;;22.23;12.32;;;;;;;4.09;46.74;100781.06;7393421;19;20070;-64
2022/12/09 04:07:57;;;;;;;23.95;12.95;;;;;;;4.07;46.83;100777.88;7394327;19;19995;-64
2022/12/09 04:10:23;;;;;;;24.27;13.77;;;;;;;4.01;46.90;100779.03;7392299;19;20456;-64
2022/12/09 04:12:49;;;;;;;25.00;12.45;;;;;;;4.08;47.04;100774.03;7391543;19;20007;-64
2022/12/09 04:15:15;;;;;;;29.40;13.65;;;;;;;4.21;46.54;100774.38;7393531;19;19991;-64
2022/12/09 04:17:41;;;;;;;24.95;12.93;;;;;;;4.15;46.53;100770.16;7390447;19;19994;-64
2022/12/09 04:20:07;;;;;;;24.40;12.63;;;;;;;4.12;46.56;100768.88;7393685;19;20384;-63
2022/12/09 04:22:33;;;;;;;23.35;12.55;;;;;;;4.11;46.63;100767.25;7392982;19;20482;-64
2022/12/09 04:24:59;;;;;;;25.10;11.63;;;;;;;4.12;46.56;100766.16;7391200;19;20002;-64
2022/12/09 04:27:24;;;;;;;21.02;10.77;;;;;;;4.06;46.64;100765.44;7394101;19;19991;-65
2022/12/09 04:29:50;;;;;;;22.83;11.32;;;;;;;4.09;46.58;100766.75;7393380;19;20374;-65
2022/12/09 04:32:15;;;;;;;23.25;12.35;;;;;;;4.15;46.50;100762.06;7393168;19;19999;-64
2022/12/09 04:34:41;;;;;;;23.10;11.23;;;;;;;4.04;46.79;100753.34;7392926;19;19995;-65
2022/12/09 04:37:07;;;;;;;20.33;10.98;;;;;;;4.01;46.60;100751.25;7389505;19;19995;-65
2022/12/09 04:39:33;;;;;;;22.02;11.57;;;;;;;3.95;46.75;100752.41;7393312;19;20002;-64
2022/12/09 04:41:58;;;;;;;21.83;11.63;;;;;;;4.03;46.79;100749.81;7392376;19;20553;-64
2022/12/09 04:44:24;;;;;;;26.05;11.70;;;;;;;4.03;46.73;100749.03;7392999;19;20094;-64
2022/12/09 04:46:50;;;;;;;21.75;11.80;;;;;;;4.06;46.70;100753.84;7393005;19;20348;-65
2022/12/09 04:49:15;;;;;;;22.92;11.75;;;;;;;3.99;46.83;100751.53;7393073;19;20006;-64
2022/12/09 04:51:41;;;;;;;21.20;11.75;;;;;;;3.60;47.62;100747.31;7391704;19;20383;-64
2022/12/09 04:54:12;;;;;;;24.70;12.55;;;;;;;3.63;47.63;100744.03;7392406;19;20080;-64
2022/12/09 04:56:37;;;;;;;24.35;12.40;;;;;;;3.83;47.06;100744.81;7391649;19;20014;-64
2022/12/09 04:59:04;;;;;;;21.63;12.15;;;;;;;3.48;47.85;100749.69;7390450;19;20374;-63
2022/12/09 05:01:29;;;;;;;23.55;11.80;;;;;;;3.52;48.05;100750.72;7392080;19;20012;-63
2022/12/09 05:03:55;;;;;;;21.95;10.85;;;;;;;3.64;47.47;100752.97;7392544;19;20353;-63
2022/12/09 05:06:22;;;;;;;24.60;11.23;;;;;;;3.49;48.01;100754.00;7392254;19;20019;-63
2022/12/09 05:08:48;;;;;;;21.98;11.45;;;;;;;3.59;47.76;100753.03;7392999;19;19999;-65
2022/12/09 05:11:15;;;;;;;20.95;11.77;;;;;;;3.45;47.77;100751.09;7391623;19;20078;-64
2022/12/09 05:13:40;;;;;;;20.65;11.63;;;;;;;3.62;47.39;100750.56;7392490;19;20002;-64
2022/12/09 05:16:11;;;;;;;23.80;12.05;;;;;;;3.32;48.04;100752.59;7391969;19;20466;-64
2022/12/09 05:18:37;;;;;;;22.20;11.80;;;;;;;3.03;48.68;100760.03;7392995;19;20011;-64
2022/12/09 05:21:06;;;;;;;19.95;10.65;;;;;;;3.09;48.25;100765.06;7392446;19;19998;-63
2022/12/09 05:23:33;;;;;;;19.92;10.80;;;;;;;2.96;48.61;100771.97;7390576;19;19999;-64
2022/12/09 05:26:02;;;;;;;25.38;11.50;;;;;;;3.06;48.28;100765.66;7390549;19;20033;-64
2022/12/09 05:28:28;;;;;;;22.00;11.02;;;;;;;3.27;47.85;100755.38;7391610;19;19999;-64
2022/12/09 05:31:00;;;;;;;22.45;11.77;;;;;;;3.40;47.59;100755.72;7392044;19;20002;-64
2022/12/09 05:33:27;;;;;;;23.05;12.00;;;;;;;3.39;47.65;100754.94;7392035;19;19999;-64
2022/12/09 05:35:52;;;;;;;24.90;12.38;;;;;;;3.15;48.16;100763.09;7391661;19;19999;-64
2022/12/09 05:38:18;;;;;;;25.00;13.05;;;;;;;3.09;48.51;100758.88;7391370;19;20009;-63
2022/12/09 05:40:44;;;;;;;22.67;11.98;;;;;;;3.26;47.96;100753.75;7391666;19;20001;-64
2022/12/09 05:43:09;;;;;;;26.95;12.48;;;;;;;3.30;48.19;100751.28;7388313;19;20014;-63
2022/12/09 05:45:35;;;;;;;24.60;12.52;;;;;;;3.37;47.83;100764.41;7390627;19;20021;-65
2022/12/09 05:48:01;;;;;;;27.58;13.93;;;;;;;3.35;47.92;100757.41;7390827;19;19999;-63
2022/12/09 05:50:26;;;;;;;25.50;13.23;;;;;;;3.29;47.92;100753.19;7391829;19;19995;-64
2022/12/09 05:52:52;;;;;;;28.10;14.07;;;;;;;3.34;47.89;100747.72;7389598;19;20005;-64
2022/12/09 05:55:18;;;;;;;30.52;13.93;;;;;;;3.19;48.33;100753.34;7391034;19;20463;-64
2022/12/09 05:57:44;;;;;;;25.67;14.18;;;;;;;3.22;48.29;100746.53;7389682;19;20006;-64
2022/12/09 06:00:10;;;;;;;29.60;13.73;;;;;;;3.25;48.30;100748.66;7391091;19;19995;-65
2022/12/09 06:02:36;;;;;;;25.38;13.02;;;;;;;3.08;48.41;100749.97;7389510;19;20003;-64
2022/12/09 06:05:02;;;;;;;31.70;15.00;;;;;;;3.07;48.58;100750.25;7389913;19;20003;-65
2022/12/09 06:07:31;;;;;;;31.23;14.88;;;;;;;3.08;48.67;100741.09;7391275;19;20005;-63
2022/12/09 06:09:56;;;;;;;28.20;14.57;;;;;;;3.21;48.30;100744.97;7390581;19;20006;-63
2022/12/09 06:12:22;;;;;;;29.08;15.15;;;;;;;3.09;48.33;100748.88;7389695;19;20756;-63
2022/12/09 06:14:48;;;;;;;28.95;15.60;;;;;;;2.78;48.95;100748.50;7390208;19;19994;-65
2022/12/09 06:17:14;;;;;;;34.67;15.05;;;;;;;2.93;48.46;100750.19;7388356;19;20066;-64
2022/12/09 06:19:39;;;;;;;30.77;14.95;;;;;;;2.89;48.46;100741.09;7391591;19;20005;-63
2022/12/09 06:22:05;;;;;;;25.17;14.07;;;;;;;2.97;48.56;100746.63;7387135;19;19998;-63
2022/12/09 06:24:31;;;;;;;28.85;14.07;;;;;;;3.00;48.59;100744.44;7390541;19;20469;-63
2022/12/09 06:26:56;;;;;;;30.52;15.50;;;;;;;2.90;48.66;100740.81;7387932;19;20474;-64
2022/12/09 06:29:22;;;;;;;30.08;15.38;;;;;;;2.98;48.68;100747.41;7390101;19;20017;-63
2022/12/09 06:31:48;;;;;;;30.38;15.55;;;;;;;2.91;48.92;100749.69;7389773;19;20348;-64
2022/12/09 06:34:13;;;;;;;31.42;15.82;;;;;;;2.97;48.53;100740.44;7390208;19;20010;-64
2022/12/09 06:36:45;;;;;;;28.30;14.48;;;;;;;2.88;48.78;100740.28;7388276;19;19995;-64
2022/12/09 06:39:11;;;;;;;34.40;15.50;;;;;;;2.93;48.36;100734.00;7391353;19;20417;-64
2022/12/09 06:41:40;;;;;;;30.08;15.15;;;;;;;2.65;48.87;100743.81;7389419;19;20003;-64
2022/12/09 06:44:05;;;;;;;30.02;14.68;;;;;;;2.55;48.97;100737.47;7387242;19;20013;-64
2022/12/09 06:46:31;;;;;;;29.25;14.90;;;;;;;2.52;49.28;100740.75;7389119;19;19995;-63
2022/12/09 06:48:57;;;;;;;28.98;15.43;;;;;;;2.53;49.24;100741.53;7389500;19;20018;-63
2022/12/09 06:51:24;;;;;;;30.10;15.52;;;;;;;2.72;48.86;100745.06;7389465;19;19999;-63
2022/12/09 06:53:49;;;;;;;31.60;16.73;;;;;;;2.59;48.85;100746.56;7387396;19;20507;-64
2022/12/09 06:56:16;;;;;;;30.42;15.65;;;;;;;2.39;49.33;100744.91;7388555;19;19998;-63
2022/12/09 06:58:43;;;;;;;33.28;16.73;;;;;;;2.61;49.10;100743.59;7390112;19;20062;-64
2022/12/09 07:01:18;;;;;;;31.90;16.20;;;;;;;2.72;48.58;100755.06;7392256;19;20359;-63
2022/12/09 07:03:47;;;;;;;32.30;16.52;;;;;;;2.62;49.14;100756.00;7396636;19;20017;-64
2022/12/09 07:06:24;;;;;;;31.92;16.75;;;;;;;2.70;48.75;100754.53;7395996;19;20026;-64
2022/12/09 07:08:49;;;;;;;31.35;15.15;;;;;;;2.57;48.64;100756.84;7396509;19;19995;-63
2022/12/09 07:11:15;;;;;;;33.28;15.93;;;;;;;2.57;48.56;100751.44;7396813;19;20373;-64
2022/12/09 07:13:41;;;;;;;29.38;15.25;;;;;;;2.55;49.13;100750.94;7396233;19;20065;-63
2022/12/09 07:16:07;;;;;;;31.50;16.50;;;;;;;2.69;48.66;100752.94;7393812;19;19994;-63
2022/12/09 07:18:32;;;;;;;35.92;16.38;;;;;;;2.78;48.44;100756.59;7396235;19;20006;-64
2022/12/09 07:21:12;;;;;;;31.65;16.63;;;;;;;2.71;48.62;100764.22;7395656;19;19991;-64
2022/12/09 07:23:39;;;;;;;33.97;17.23;;;;;;;2.61;48.96;100759.75;7396813;19;20011;-64
2022/12/09 07:26:05;;;;;;;32.53;17.70;;;;;;;2.65;48.91;100763.50;7395368;19;20011;-64
2022/12/09 07:28:33;;;;;;;32.50;16.73;;;;;;;2.53;49.34;100763.88;7396764;19;19994;-64
2022/12/09 07:30:58;;;;;;;31.40;16.98;;;;;;;2.35;49.65;100772.72;7395259;19;20006;-63
2022/12/09 07:33:24;;;;;;;35.88;17.30;;;;;;;2.61;49.31;100760.56;7396425;19;20020;-64
2022/12/09 07:35:54;;;;;;;37.92;16.90;;;;;;;2.65;49.17;100762.69;7394617;19;20320;-63
2022/12/09 07:38:21;;;;;;;35.55;17.05;;;;;;;2.48;49.50;100777.41;7396000;19;20094;-63
2022/12/09 07:40:47;;;;;;;34.25;17.08;;;;;;;2.57;49.64;100772.22;7395214;19;19994;-65
2022/12/09 07:43:13;;;;;;;39.45;18.55;;;;;;;2.57;49.61;100778.41;7394420;19;20485;-65
2022/12/09 07:45:39;;;;;;;35.53;17.48;;;;;;;2.74;49.27;100779.81;7393342;19;20002;-64
2022/12/09 07:48:07;;;;;;;33.97;18.25;;;;;;;2.82;49.12;100781.88;7395954;19;20097;-64
2022/12/09 07:50:34;;;;;;;35.08;17.55;;;;;;;2.90;48.87;100788.50;7395167;19;20487;-64
2022/12/09 07:53:00;;;;;;;33.80;17.20;;;;;;;2.83;48.93;100778.09;7393024;19;20474;-65
2022/12/09 07:55:26;;;;;;;35.45;17.40;;;;;;;2.89;49.14;100787.72;7394696;19;20005;-63
2022/12/09 07:57:52;;;;;;;34.05;17.17;;;;;;;2.92;48.92;100787.16;7392962;19;20002;-67
2022/12/09 08:00:18;;;;;;;34.08;17.75;;;;;;;2.89;48.97;100792.31;7394699;19;20048;-64
2022/12/09 08:02:44;;;;;;;38.30;16.98;;;;;;;2.78;49.09;100791.63;7392585;19;20006;-65
2022/12/09 08:05:10;;;;;;;36.63;17.77;;;;;;;2.70;49.61;100795.78;7394298;19;20003;-65
2022/12/09 08:07:36;;;;;;;38.85;18.52;;;;;;;2.74;49.64;100798.69;7393903;19;20458;-65
2022/12/09 08:10:01;;;;;;;41.13;19.08;;;;;;;2.63;49.85;100798.00;7394462;19;20007;-63
2022/12/09 08:12:27;;;;;;;53.60;18.25;;;;;;;2.65;49.78;100797.72;7392314;19;20003;-64
2022/12/09 08:14:53;;;;;;;41.42;18.08;;;;;;;2.65;49.78;100803.09;7394159;19;20110;-65
2022/12/09 08:17:18;;;;;;;43.45;18.17;;;;;;;2.79;49.23;100799.44;7393248;19;19998;-65
2022/12/09 08:19:45;;;;;;;38.17;18.02;;;;;;;2.79;49.54;100798.63;7393398;19;20025;-64
2022/12/09 08:22:10;;;;;;;37.90;18.50;;;;;;;2.76;49.62;100788.41;7391409;19;20002;-64
2022/12/09 08:24:36;;;;;;;36.80;17.15;;;;;;;2.76;49.54;100801.91;7393675;19;20503;-64
2022/12/09 08:27:02;;;;;;;38.67;19.15;;;;;;;2.77;49.61;100795.44;7391787;19;20097;-64
2022/12/09 08:29:27;;;;;;;34.85;18.05;;;;;;;2.66;49.71;100797.44;7393380;19;19999;-64
2022/12/09 08:31:53;;;;;;;43.38;18.38;;;;;;;2.69;49.69;100798.75;7392866;19;20002;-64
2022/12/09 08:34:19;;;;;;;70.90;20.67;;;;;;;2.71;49.65;100794.66;7393117;19;20003;-64
2022/12/09 08:36:44;;;;;;;44.70;19.33;;;;;;;2.62;50.04;100796.41;7392110;19;20006;-64
2022/12/09 08:39:11;;;;;;;88.68;20.90;;;;;;;2.58;50.31;100795.38;7392997;19;20003;-64
2022/12/09 08:41:38;;;;;;;58.47;19.38;;;;;;;2.61;50.51;100809.06;7390472;19;20394;-64
2022/12/09 08:44:14;;;;;;;59.63;20.40;;;;;;;2.67;50.46;100817.09;7391182;19;20014;-64
2022/12/09 08:46:45;;;;;;;68.68;21.10;;;;;;;2.80;50.34;100805.59;7392377;19;20089;-65
2022/12/09 08:49:12;;;;;;;61.85;19.95;;;;;;;2.88;50.45;100807.66;7392682;19;20156;-64
2022/12/09 08:51:38;;;;;;;53.50;21.33;;;;;;;2.97;50.18;100802.47;7392114;19;20010;-64
2022/12/09 08:54:05;;;;;;;57.38;21.67;;;;;;;3.07;50.27;100798.81;7393430;19;19990;-64
2022/12/09 08:56:30;;;;;;;51.00;22.10;;;;;;;3.12;50.05;100804.16;7392302;19;20082;-65
2022/12/09 08:58:57;;;;;;;65.38;21.85;;;;;;;3.18;50.07;100805.66;7394553;19;19998;-64
2022/12/09 09:01:25;;;;;;;52.33;22.33;;;;;;;3.28;50.01;100800.13;7392455;19;20025;-65
2022/12/09 09:03:51;;;;;;;57.42;23.00;;;;;;;3.29;49.94;100804.44;7393068;19;20005;-65
2022/12/09 09:06:18;;;;;;;64.50;23.90;;;;;;;3.23;50.29;100796.72;7391630;19;19994;-64
2022/12/09 09:08:44;;;;;;;59.90;23.20;;;;;;;3.41;49.80;100801.31;7392900;19;20010;-65
2022/12/09 09:11:17;;;;;;;73.43;23.50;;;;;;;3.31;50.18;100796.84;7391765;19;20010;-64
2022/12/09 09:13:44;;;;;;;51.35;22.38;;;;;;;3.26;50.35;100806.94;7392428;19;19994;-65
2022/12/09 09:16:14;;;;;;;60.67;24.30;;;;;;;3.32;50.31;100811.97;7390944;19;20014;-65
2022/12/09 09:18:40;;;;;;;57.13;23.15;;;;;;;3.42;50.15;100802.91;7392302;19;20006;-64
2022/12/09 09:21:07;;;;;;;60.40;25.48;;;;;;;3.35;50.25;100807.84;7391978;19;20011;-64
2022/12/09 09:23:33;;;;;;;52.08;22.88;;;;;;;3.41;50.02;100808.59;7390520;19;20470;-64
2022/12/09 09:26:06;;;;;;;53.60;23.42;;;;;;;3.48;50.02;100800.97;7390910;19;20018;-65
2022/12/09 09:28:32;;;;;;;60.30;22.92;;;;;;;3.24;50.47;100809.13;7392523;19;20017;-65
2022/12/09 09:31:00;;;;;;;50.83;22.63;;;;;;;3.29;50.41;100809.84;7391687;19;19998;-64
2022/12/09 09:33:26;;;;;;;54.72;24.30;;;;;;;3.34;50.20;100809.75;7392379;19;20074;-64
2022/12/09 09:35:57;;;;;;;53.35;24.70;;;;;;;3.53;50.14;100801.69;7391400;19;19986;-65
2022/12/09 09:38:23;;;;;;;52.60;23.27;;;;;;;3.57;49.86;100807.31;7391957;19;19994;-65
2022/12/09 09:40:49;;;;;;;52.17;23.02;;;;;;;3.58;49.92;100808.91;7391306;19;19999;-65
2022/12/09 09:43:18;;;;;;;56.65;24.15;;;;;;;3.64;49.82;100815.84;7389559;19;20124;-65
2022/12/09 09:45:45;;;;;;;55.47;24.55;;;;;;;3.45;50.21;100815.88;7390803;19;20002;-65
2022/12/09 09:48:17;;;;;;;51.60;23.38;;;;;;;3.51;50.09;100813.88;7389706;19;20002;-64
2022/12/09 09:50:51;;;;;;;55.22;24.17;;;;;;;3.56;49.86;100813.78;7391902;19;20013;-65
2022/12/09 09:53:23;;;;;;;50.58;23.70;;;;;;;3.48;50.21;100817.94;7391044;19;19998;-65
2022/12/09 09:55:59;;;;;;;55.63;23.90;;;;;;;3.63;49.90;100808.03;7391547;19;19995;-65
2022/12/09 09:58:29;;;;;;;52.35;23.25;;;;;;;3.65;49.81;100808.53;7391950;19;20010;-64
2022/12/09 10:01:13;;;;;;;51.15;24.15;;;;;;;3.53;50.04;100814.38;7391454;19;20010;-65
2022/12/09 10:03:44;;;;;;;52.87;24.33;;;;;;;3.44;50.17;100808.84;7391449;19;20011;-64
2022/12/09 10:06:19;;;;;;;58.25;24.52;;;;;;;3.63;49.91;100800.72;7390516;19;20238;-64
2022/12/09 10:09:02;;;;;;;50.60;23.38;;;;;;;3.78;49.41;100791.59;7389241;19;19999;-64
2022/12/09 10:11:39;;;;;;;50.73;22.90;;;;;;;3.95;49.20;100792.94;7390087;19;20029;-63
2022/12/09 10:14:27;;;;;;;50.38;22.63;;;;;;;3.72;49.46;100795.47;7389944;19;20258;-64
2022/12/09 10:17:21;;;;;;;51.13;21.70;;;;;;;3.55;50.08;100787.91;7389151;19;20003;-63
2022/12/09 10:19:51;;;;;;;54.08;23.98;;;;;;;3.65;49.92;100787.75;7389375;19;20006;-63
2022/12/09 10:22:21;;;;;;;53.33;22.08;;;;;;;3.78;49.69;100791.59;7390045;19;20006;-63
2022/12/09 10:24:49;;;;;;;55.50;22.45;;;;;;;3.69;49.66;100790.66;7389233;19;20010;-65
2022/12/09 10:27:38;;;;;;;49.42;21.63;;;;;;;3.67;49.73;100793.66;7391064;19;20050;-63
2022/12/09 10:30:09;;;;;;;52.83;22.48;;;;;;;3.57;49.72;100796.53;7390066;19;20013;-64
2022/12/09 10:32:36;;;;;;;57.35;22.95;;;;;;;3.56;49.94;100794.91;7388716;19;20557;-64
2022/12/09 10:35:20;;;;;;;51.33;22.15;;;;;;;3.53;49.71;100790.88;7390747;19;20025;-64
2022/12/09 10:37:47;;;;;;;44.85;21.58;;;;;;;3.68;49.86;100795.25;7396306;19;20323;-64
2022/12/09 10:40:20;;;;;;;55.35;22.60;;;;;;;3.81;49.27;100798.31;7397564;19;20036;-64
2022/12/09 10:45:32;;;;;;;49.50;22.88;;;;;;;3.52;49.73;100796.59;7396706;19;20278;-64
2022/12/09 10:47:58;;;;;;;52.22;22.75;;;;;;;3.48;50.05;100793.66;7396132;19;20007;-64
2022/12/09 10:50:32;;;;;;;47.00;21.85;;;;;;;3.55;50.01;100796.00;7395413;19;20020;-64
2022/12/09 10:53:10;;;;;;;52.38;23.33;;;;;;;3.73;49.54;100794.38;7394408;19;20020;-65
2022/12/09 10:55:40;;;;;;;50.40;23.08;;;;;;;3.63;49.75;100797.22;7396194;19;19998;-64
2022/12/09 10:58:27;;;;;;;57.95;24.38;;;;;;;3.62;50.10;100791.03;7393989;19;20002;-64
2022/12/09 11:01:11;;;;;;;50.97;23.15;;;;;;;3.74;50.03;100795.16;7397183;19;20005;-65
2022/12/09 11:03:57;;;;;;;47.17;21.85;;;;;;;3.93;49.52;100793.22;7396235;19;19998;-66
2022/12/09 11:06:27;;;;;;;51.95;23.15;;;;;;;3.87;49.25;100786.31;7395963;19;20458;-65
2022/12/09 11:08:55;;;;;;;46.80;22.73;;;;;;;4.00;49.22;100793.63;7395684;19;20025;-65
2022/12/09 11:11:41;;;;;;;48.28;21.98;;;;;;;3.96;49.06;100797.25;7395534;19;19998;-65
2022/12/09 11:14:23;;;;;;;49.13;22.05;;;;;;;3.78;49.44;100786.19;7398396;19;20019;-65
2022/12/09 11:16:51;;;;;;;47.72;21.38;;;;;;;3.73;49.65;100788.16;7394332;19;20003;-66
2022/12/09 11:19:26;;;;;;;60.53;24.42;;;;;;;3.74;49.49;100784.34;7395551;19;19995;-64
2022/12/09 11:22:11;;;;;;;47.58;22.67;;;;;;;3.73;49.89;100783.56;7395169;19;20013;-65
2022/12/09 11:24:39;;;;;;;52.58;23.83;;;;;;;4.01;49.34;100789.84;7393885;19;20009;-65
2022/12/09 11:27:26;;;;;;;47.90;23.08;;;;;;;3.76;49.22;100788.38;7395142;19;20006;-64
2022/12/09 11:30:14;;;;;;;41.13;21.00;;;;;;;3.68;49.50;100784.44;7395673;19;19995;-63